Time;durP1;ratioP1;P1;durP2;ratioP2;P2;SDS_P1;SDS_P2;PMS_P1;PMS_P2;Temp;Humidity;BMP_temperature;BMP_pressure;BME280_temperature;BME280_humidity;BME280_pressure;Samples;Min_cycle;Max_cycle;Signal;HPM_P1;HPM_P2
2021/11/15 00:01:15;;;;;;;0.30;0.20;;;;;;;9.45;100.00;101045.00;4968199;28;20540;-54
2021/11/15 00:03:44;;;;;;;0.30;0.20;;;;;;;9.37;100.00;101044.25;4982768;28;20453;-53
2021/11/15 00:06:11;;;;;;;0.30;0.20;;;;;;;9.37;100.00;101044.25;4980094;28;20450;-54
2021/11/15 00:08:38;;;;;;;0.30;0.20;;;;;;;9.49;100.00;101045.88;4984142;28;20458;-53
2021/11/15 00:11:05;;;;;;;0.30;0.20;;;;;;;9.43;100.00;101036.19;4986582;28;20478;-51
2021/11/15 00:13:31;;;;;;;0.30;0.20;;;;;;;9.53;100.00;101041.41;4983318;28;20457;-51
2021/11/15 00:15:58;;;;;;;0.87;0.87;;;;;;;9.45;100.00;101031.75;4979847;28;20617;-51
2021/11/15 00:18:25;;;;;;;0.53;0.53;;;;;;;9.51;100.00;101033.47;4983189;28;20446;-51
2021/11/15 00:20:55;;;;;;;0.40;0.40;;;;;;;9.60;100.00;101033.38;4986831;28;20470;-51
2021/11/15 00:23:21;;;;;;;0.30;0.20;;;;;;;9.57;100.00;101021.88;4983997;28;20953;-51
2021/11/15 00:25:48;;;;;;;0.30;0.20;;;;;;;9.48;100.00;101028.19;4980500;28;20997;-51
2021/11/15 00:28:15;;;;;;;0.30;0.20;;;;;;;9.41;100.00;101030.03;4992921;28;20958;-54
2021/11/15 00:30:42;;;;;;;1.60;1.50;;;;;;;9.38;100.00;101026.56;4962502;28;20477;-53
2021/11/15 00:33:08;;;;;;;0.53;0.50;;;;;;;9.44;100.00;101027.34;4992879;28;20450;-53
2021/11/15 00:35:35;;;;;;;2.97;2.77;;;;;;;9.46;100.00;101028.22;4979395;28;20512;-53
2021/11/15 00:38:02;;;;;;;0.30;0.20;;;;;;;9.72;100.00;101024.34;4981621;28;20458;-54
2021/11/15 00:40:28;;;;;;;0.30;0.20;;;;;;;9.54;100.00;101025.47;4986369;28;20474;-54
2021/11/15 00:42:56;;;;;;;0.30;0.20;;;;;;;9.62;100.00;101023.59;4985234;28;20446;-51
2021/11/15 00:45:22;;;;;;;0.30;0.20;;;;;;;9.57;100.00;101019.22;4979565;28;20454;-51
2021/11/15 00:47:49;;;;;;;0.30;0.20;;;;;;;9.77;100.00;101025.16;4981619;28;20450;-51
2021/11/15 00:50:19;;;;;;;0.30;0.20;;;;;;;9.76;100.00;101023.41;4986375;28;20946;-51
2021/11/15 00:52:47;;;;;;;0.40;0.40;;;;;;;9.77;100.00;101022.53;4986197;28;20450;-51
2021/11/15 00:55:14;;;;;;;0.30;0.20;;;;;;;9.55;100.00;101026.34;4979459;28;20852;-51
2021/11/15 00:57:42;;;;;;;0.30;0.20;;;;;;;9.67;100.00;101024.41;4980004;28;20506;-51
2021/11/15 01:00:12;;;;;;;0.30;0.20;;;;;;;9.53;100.00;101022.81;4980283;28;20458;-51
2021/11/15 01:02:39;;;;;;;0.40;0.40;;;;;;;9.63;100.00;101030.66;4990333;28;21010;-51
2021/11/15 01:05:06;;;;;;;0.40;0.40;;;;;;;9.44;100.00;101035.28;4969760;28;20453;-51
2021/11/15 01:07:33;;;;;;;0.30;0.20;;;;;;;9.31;100.00;101028.38;4978257;28;20860;-51
2021/11/15 01:10:00;;;;;;;0.30;0.20;;;;;;;9.38;100.00;101039.81;4990075;28;20523;-54
2021/11/15 01:12:27;;;;;;;0.30;0.20;;;;;;;9.26;100.00;101032.00;4982652;28;20553;-54
2021/11/15 01:14:53;;;;;;;0.30;0.20;;;;;;;9.34;100.00;101031.03;4989769;28;20866;-54
2021/11/15 01:17:20;;;;;;;1.57;1.57;;;;;;;9.42;100.00;101029.13;4983373;28;20517;-54
2021/11/15 01:19:47;;;;;;;0.40;0.40;;;;;;;9.45;100.00;101036.19;4985969;28;20469;-53
2021/11/15 01:22:14;;;;;;;0.30;0.20;;;;;;;9.46;100.00;101033.53;4983703;28;20489;-54
2021/11/15 01:24:41;;;;;;;0.30;0.20;;;;;;;9.57;100.00;101027.19;4983555;28;20462;-51
2021/11/15 01:27:09;;;;;;;0.30;0.20;;;;;;;9.28;100.00;101030.19;4988989;28;20458;-51
2021/11/15 01:29:35;;;;;;;0.30;0.20;;;;;;;9.26;100.00;101032.00;4989421;28;20449;-51
2021/11/15 01:32:02;;;;;;;0.30;0.20;;;;;;;9.19;100.00;101028.53;4988975;28;20473;-52
2021/11/15 01:34:29;;;;;;;0.30;0.20;;;;;;;9.24;100.00;101025.81;4983119;28;20455;-53
2021/11/15 01:36:56;;;;;;;1.00;0.97;;;;;;;9.24;100.00;101026.72;4991687;28;20489;-53
2021/11/15 01:39:23;;;;;;;1.23;0.83;;;;;;;9.39;100.00;101026.53;4982998;28;20494;-53
2021/11/15 01:41:52;;;;;;;0.30;0.20;;;;;;;9.35;100.00;101031.91;4988084;28;20994;-53
2021/11/15 01:44:19;;;;;;;2.97;1.17;;;;;;;9.29;100.00;101039.91;4989352;28;20449;-51
2021/11/15 01:46:46;;;;;;;0.30;0.30;;;;;;;9.35;100.00;101032.78;4984520;28;20875;-52
2021/11/15 01:49:13;;;;;;;6.63;2.30;;;;;;;9.16;100.00;101029.44;4994202;28;20450;-53
2021/11/15 01:51:40;;;;;;;1.43;0.97;;;;;;;9.34;100.00;101031.03;4984603;28;20473;-54
2021/11/15 01:54:07;;;;;;;0.30;0.20;;;;;;;9.25;100.00;101028.47;4982488;28;20461;-54
2021/11/15 01:56:33;;;;;;;0.30;0.20;;;;;;;9.20;100.00;101027.66;4987402;28;20494;-53
2021/11/15 01:59:03;;;;;;;0.30;0.20;;;;;;;9.26;100.00;101016.94;4988926;28;20875;-53
2021/11/15 02:01:30;;;;;;;0.30;0.20;;;;;;;9.18;100.00;101018.81;4984954;28;20520;-53
2021/11/15 02:03:58;;;;;;;0.30;0.20;;;;;;;9.05;100.00;101012.78;4997600;28;20954;-53
2021/11/15 02:06:26;;;;;;;0.30;0.20;;;;;;;9.09;100.00;101017.16;4988451;28;20516;-53
2021/11/15 02:08:53;;;;;;;0.40;0.40;;;;;;;9.06;100.00;101017.19;4982278;28;20453;-53
2021/11/15 02:11:20;;;;;;;0.30;0.20;;;;;;;9.07;100.00;101018.94;4991184;28;20544;-53
2021/11/15 02:13:47;;;;;;;0.30;0.20;;;;;;;9.13;100.00;101015.34;4982160;28;20512;-53
2021/11/15 02:16:14;;;;;;;0.30;0.20;;;;;;;9.19;100.00;101017.94;4985193;28;21007;-53
2021/11/15 02:18:41;;;;;;;0.30;0.20;;;;;;;9.11;100.00;101004.75;4988627;28;20998;-53
2021/11/15 02:21:09;;;;;;;0.30;0.20;;;;;;;9.03;100.00;101005.72;4985677;28;20536;-53
2021/11/15 02:23:40;;;;;;;0.30;0.20;;;;;;;9.08;100.00;101007.44;4981997;28;20500;-53
2021/11/15 02:26:09;;;;;;;0.30;0.30;;;;;;;9.11;100.00;101011.81;4984120;28;20505;-53
2021/11/15 02:28:39;;;;;;;0.30;0.20;;;;;;;9.23;100.00;101016.13;4988663;28;20509;-53
2021/11/15 02:31:08;;;;;;;0.30;0.20;;;;;;;9.29;100.00;101019.56;4966979;28;20836;-53
2021/11/15 02:33:35;;;;;;;0.30;0.20;;;;;;;9.34;100.00;101020.41;4981291;28;20457;-53
2021/11/15 02:36:04;;;;;;;1.07;0.73;;;;;;;9.34;100.00;101003.63;4982396;28;20517;-54
2021/11/15 02:38:32;;;;;;;0.30;0.20;;;;;;;9.12;100.00;101011.81;4993638;28;20886;-53
2021/11/15 02:41:00;;;;;;;1.03;1.03;;;;;;;9.20;100.00;101011.72;4981644;28;20474;-53
2021/11/15 02:43:27;;;;;;;0.30;0.20;;;;;;;9.17;100.00;101009.09;4987977;28;20455;-53
2021/11/15 02:45:54;;;;;;;0.30;0.20;;;;;;;9.09;100.00;101000.34;4988348;28;20505;-52
2021/11/15 02:48:24;;;;;;;0.30;0.20;;;;;;;9.28;100.00;101003.66;4975358;28;20447;-53
2021/11/15 02:50:51;;;;;;;0.30;0.20;;;;;;;9.39;100.00;101000.00;4988027;28;20497;-53
2021/11/15 02:53:18;;;;;;;0.30;0.20;;;;;;;9.39;100.00;100999.13;4983101;28;20462;-53
2021/11/15 02:55:45;;;;;;;0.30;0.20;;;;;;;9.35;100.00;100998.28;4981377;28;20748;-53
2021/11/15 02:58:13;;;;;;;0.60;0.60;;;;;;;9.39;100.00;100994.69;4986445;28;20869;-53
2021/11/15 03:00:48;;;;;;;0.30;0.20;;;;;;;9.45;100.00;100986.63;4989559;28;20513;-53
2021/11/15 03:03:16;;;;;;;0.30;0.20;;;;;;;9.41;100.00;100990.22;4994298;28;20428;-53
2021/11/15 03:05:49;;;;;;;0.50;0.50;;;;;;;9.37;100.00;100995.59;4993461;28;20492;-53
2021/11/15 03:08:18;;;;;;;0.30;0.20;;;;;;;9.35;100.00;100986.78;4984232;28;20446;-53
2021/11/15 03:10:47;;;;;;;0.30;0.30;;;;;;;9.51;100.00;100988.34;4988294;28;20478;-53
2021/11/15 03:13:15;;;;;;;0.30;0.20;;;;;;;9.38;100.00;100984.09;4966222;28;20509;-53
2021/11/15 03:15:49;;;;;;;0.30;0.20;;;;;;;9.39;100.00;100988.50;4987650;28;20456;-53
2021/11/15 03:18:22;;;;;;;0.30;0.20;;;;;;;9.34;100.00;100983.25;4987247;28;20489;-53
2021/11/15 03:20:52;;;;;;;0.30;0.20;;;;;;;9.44;100.00;100981.34;4987296;28;20890;-53
2021/11/15 03:23:22;;;;;;;0.30;0.20;;;;;;;9.38;100.00;100976.13;4987725;28;20458;-53
2021/11/15 03:25:49;;;;;;;0.30;0.20;;;;;;;9.52;100.00;100971.53;4981977;28;20871;-53
2021/11/15 03:28:20;;;;;;;0.30;0.20;;;;;;;9.46;100.00;100975.16;4981102;28;20451;-53
2021/11/15 03:30:54;;;;;;;0.30;0.20;;;;;;;9.56;100.00;100973.22;4987683;28;20506;-53
2021/11/15 03:33:22;;;;;;;0.30;0.20;;;;;;;9.47;100.00;100973.38;4990485;28;20488;-53
2021/11/15 03:35:49;;;;;;;0.67;0.67;;;;;;;9.24;100.00;100962.16;4984296;28;20476;-53
2021/11/15 03:38:16;;;;;;;0.30;0.20;;;;;;;9.15;100.00;100974.63;4980562;28;20503;-53
2021/11/15 03:40:43;;;;;;;0.30;0.20;;;;;;;9.31;100.00;100975.31;4983319;28;20481;-53
2021/11/15 03:43:11;;;;;;;8.10;1.37;;;;;;;9.44;100.00;100970.75;4987232;28;20947;-53
2021/11/15 03:45:39;;;;;;;0.97;0.97;;;;;;;9.30;100.00;100972.69;4984750;28;20504;-53
2021/11/15 03:48:08;;;;;;;0.30;0.20;;;;;;;9.30;100.00;100978.00;4980265;28;20512;-53
2021/11/15 03:50:35;;;;;;;0.30;0.30;;;;;;;9.37;100.00;100977.03;4981950;28;20529;-53
2021/11/15 03:53:04;;;;;;;0.30;0.20;;;;;;;9.30;100.00;100970.03;4987215;28;20454;-53
2021/11/15 03:55:30;;;;;;;0.30;0.20;;;;;;;9.42;100.00;100967.22;4985936;28;20481;-53
2021/11/15 03:57:57;;;;;;;0.60;0.60;;;;;;;9.38;100.00;100973.47;4980375;28;20552;-53
2021/11/15 04:00:28;;;;;;;0.77;0.77;;;;;;;9.44;100.00;100973.38;4981044;28;20818;-53
2021/11/15 04:03:01;;;;;;;0.30;0.20;;;;;;;9.32;100.00;100981.50;4973888;28;20924;-53
2021/11/15 04:05:33;;;;;;;0.30;0.20;;;;;;;9.09;100.00;100972.06;5000754;28;20499;-53
2021/11/15 04:08:02;;;;;;;1.17;1.17;;;;;;;9.24;100.00;100971.00;4985312;28;20501;-53
2021/11/15 04:10:52;;;;;;;0.30;0.20;;;;;;;9.11;100.00;100967.63;4986544;28;20481;-53
2021/11/15 04:13:23;;;;;;;0.30;0.20;;;;;;;9.17;100.00;100970.19;4980146;28;20513;-50
2021/11/15 04:15:53;;;;;;;0.30;0.20;;;;;;;9.27;100.00;100976.25;4974223;28;20501;-50
2021/11/15 04:18:23;;;;;;;0.30;0.20;;;;;;;9.36;100.00;100968.19;4986570;28;20525;-54
2021/11/15 04:20:54;;;;;;;0.30;0.20;;;;;;;9.35;100.00;100965.56;4986390;28;20474;-50
2021/11/15 04:23:22;;;;;;;0.30;0.20;;;;;;;9.29;100.00;100973.59;4973900;28;20450;-50
2021/11/15 04:25:49;;;;;;;0.30;0.20;;;;;;;9.32;100.00;100968.25;4973855;28;20451;-50
2021/11/15 04:28:15;;;;;;;0.30;0.20;;;;;;;9.30;100.00;100960.31;4969390;28;20450;-50
2021/11/15 04:30:43;;;;;;;0.30;0.20;;;;;;;9.23;100.00;100973.69;4981572;28;20846;-50
2021/11/15 04:33:10;;;;;;;0.77;0.77;;;;;;;9.34;100.00;100963.81;4992690;28;20533;-51
2021/11/15 04:35:37;;;;;;;0.30;0.20;;;;;;;9.24;100.00;100962.16;4992873;28;20512;-51
2021/11/15 04:38:08;;;;;;;0.97;0.97;;;;;;;9.29;100.00;100974.47;4994592;28;20559;-50
2021/11/15 04:40:36;;;;;;;0.73;0.73;;;;;;;9.35;100.00;100966.44;4988291;28;20474;-52
2021/11/15 04:43:04;;;;;;;0.30;0.20;;;;;;;9.29;100.00;100958.53;4993349;28;20912;-50
2021/11/15 04:45:31;;;;;;;0.30;0.20;;;;;;;9.30;100.00;100964.72;4987729;28;20462;-50
2021/11/15 04:47:58;;;;;;;0.30;0.20;;;;;;;9.14;100.00;100967.56;4990273;28;20454;-50
2021/11/15 04:50:25;;;;;;;0.40;0.20;;;;;;;9.24;100.00;100970.13;4977322;28;20513;-50
2021/11/15 04:52:52;;;;;;;0.30;0.20;;;;;;;9.27;100.00;100973.59;4993749;28;20452;-50
2021/11/15 04:55:22;;;;;;;0.40;0.40;;;;;;;9.38;100.00;100982.31;4986501;28;20454;-51
2021/11/15 04:57:50;;;;;;;0.30;0.20;;;;;;;9.33;100.00;100977.97;4990232;28;20493;-52
2021/11/15 05:00:25;;;;;;;0.50;0.50;;;;;;;9.17;100.00;100979.91;4987757;28;20449;-50
2021/11/15 05:02:52;;;;;;;0.30;0.20;;;;;;;9.25;100.00;100970.09;4991623;28;20489;-52
2021/11/15 05:05:20;;;;;;;0.30;0.20;;;;;;;9.25;100.00;100970.09;4989489;28;20500;-50
2021/11/15 05:07:48;;;;;;;0.30;0.20;;;;;;;9.20;100.00;100966.63;4990566;28;20478;-50
2021/11/15 05:10:15;;;;;;;0.30;0.20;;;;;;;9.19;100.00;100971.06;4989755;28;20507;-50
2021/11/15 05:12:42;;;;;;;0.30;0.20;;;;;;;9.34;100.00;100963.81;4986641;28;21003;-51
2021/11/15 05:15:11;;;;;;;0.30;0.20;;;;;;;9.25;100.00;100956.84;4990123;28;20499;-50
2021/11/15 05:17:39;;;;;;;0.30;0.20;;;;;;;9.14;100.00;100956.09;4983760;28;21056;-50
2021/11/15 05:20:08;;;;;;;0.30;0.20;;;;;;;9.15;100.00;100953.41;4983247;28;20458;-50
2021/11/15 05:22:36;;;;;;;2.50;1.13;;;;;;;9.11;100.00;100957.00;4988389;28;20549;-50
2021/11/15 05:25:04;;;;;;;0.30;0.20;;;;;;;9.22;100.00;100948.06;4976571;28;20450;-51
2021/11/15 05:27:31;;;;;;;0.30;0.20;;;;;;;9.18;100.00;100947.19;4976893;28;20454;-50
2021/11/15 05:29:58;;;;;;;0.30;0.20;;;;;;;9.28;100.00;100950.63;4989750;28;20453;-51
2021/11/15 05:32:24;;;;;;;0.30;0.20;;;;;;;9.33;100.00;100951.44;4991998;28;20500;-51
2021/11/15 05:34:51;;;;;;;0.30;0.20;;;;;;;9.19;100.00;100951.63;4983040;28;20490;-50
2021/11/15 05:37:18;;;;;;;0.30;0.20;;;;;;;9.31;100.00;100959.41;4987182;28;20493;-50
2021/11/15 05:39:45;;;;;;;0.30;0.20;;;;;;;9.38;100.00;100966.41;4989306;28;20465;-51
2021/11/15 05:42:12;;;;;;;3.70;1.90;;;;;;;9.28;100.00;100963.88;4985508;28;20480;-51
2021/11/15 05:44:39;;;;;;;0.40;0.30;;;;;;;9.27;100.00;100962.13;4980395;28;20450;-51
2021/11/15 05:47:05;;;;;;;0.40;0.30;;;;;;;9.23;100.00;100968.38;4985405;28;20432;-50
2021/11/15 05:49:32;;;;;;;0.30;0.20;;;;;;;9.37;100.00;100963.78;4965391;28;20530;-51
2021/11/15 05:51:59;;;;;;;0.30;0.20;;;;;;;9.33;100.00;100962.94;4995481;28;20524;-52
2021/11/15 05:54:25;;;;;;;0.30;0.20;;;;;;;9.27;100.00;100954.16;4993878;28;20943;-51
2021/11/15 05:56:52;;;;;;;0.30;0.20;;;;;;;9.34;100.00;100951.44;4985771;28;20481;-52
2021/11/15 05:59:19;;;;;;;0.30;0.23;;;;;;;9.16;100.00;100951.63;4982506;28;20933;-52
2021/11/15 06:01:46;;;;;;;0.30;0.20;;;;;;;9.28;100.00;100956.78;4995386;28;20531;-52
2021/11/15 06:04:13;;;;;;;0.67;0.67;;;;;;;9.33;100.00;100962.94;4982964;28;20484;-52
2021/11/15 06:06:40;;;;;;;0.30;0.20;;;;;;;9.12;100.00;100974.66;4995076;28;20453;-52
2021/11/15 06:09:06;;;;;;;0.30;0.20;;;;;;;9.06;100.00;100968.56;4982048;28;20508;-53
2021/11/15 06:11:33;;;;;;;0.30;0.20;;;;;;;9.19;100.00;100967.53;4992772;28;20485;-52
2021/11/15 06:14:00;;;;;;;0.30;0.20;;;;;;;9.20;100.00;100966.63;4981936;28;20943;-53
2021/11/15 06:16:27;;;;;;;0.30;0.20;;;;;;;9.26;100.00;100971.84;4985813;28;20517;-52
2021/11/15 06:18:53;;;;;;;0.30;0.20;;;;;;;9.13;100.00;100976.44;4989577;28;20494;-52
2021/11/15 06:21:20;;;;;;;0.30;0.20;;;;;;;9.11;100.00;100978.22;4985042;28;20528;-52
2021/11/15 06:23:46;;;;;;;0.30;0.20;;;;;;;9.14;100.00;100972.00;4974999;28;20446;-52
2021/11/15 06:26:13;;;;;;;19.07;1.70;;;;;;;9.14;100.00;100983.47;4967992;28;21019;-52
2021/11/15 06:28:40;;;;;;;0.30;0.20;;;;;;;9.34;100.00;100979.72;4982035;28;20897;-52
2021/11/15 06:31:11;;;;;;;0.30;0.30;;;;;;;9.07;100.00;100978.28;4990316;28;20473;-52
2021/11/15 06:33:38;;;;;;;0.30;0.20;;;;;;;9.05;100.00;100988.91;4990829;28;20457;-52
2021/11/15 06:36:05;;;;;;;1.33;0.77;;;;;;;9.16;100.00;100991.41;4986059;28;20520;-52
2021/11/15 06:38:32;;;;;;;0.30;0.20;;;;;;;9.08;100.00;100986.22;4981720;28;21069;-52
2021/11/15 06:40:58;;;;;;;0.30;0.20;;;;;;;8.99;100.00;100991.63;4983564;28;20497;-52
2021/11/15 06:43:25;;;;;;;0.40;0.30;;;;;;;8.92;100.00;100994.38;4988525;28;20509;-52
2021/11/15 06:45:52;;;;;;;0.30;0.20;;;;;;;9.03;100.00;100992.44;4986338;28;20459;-52
2021/11/15 06:48:18;;;;;;;0.30;0.20;;;;;;;9.16;100.00;100992.28;4981558;28;20449;-52
2021/11/15 06:50:45;;;;;;;0.30;0.20;;;;;;;9.05;100.00;100994.22;4983389;28;20594;-52
2021/11/15 06:53:12;;;;;;;0.53;0.50;;;;;;;8.94;100.00;100995.22;4988116;28;20505;-52
2021/11/15 06:55:38;;;;;;;0.30;0.20;;;;;;;8.90;100.00;100997.00;4986664;28;20806;-52
2021/11/15 06:58:05;;;;;;;1.13;1.13;;;;;;;9.00;100.00;100995.16;4981268;28;20500;-52
2021/11/15 07:00:32;;;;;;;1.00;1.00;;;;;;;8.94;100.00;101005.81;4982580;28;20501;-52
2021/11/15 07:02:59;;;;;;;0.40;0.30;;;;;;;9.05;100.00;100998.66;4989170;28;20452;-52
2021/11/15 07:05:26;;;;;;;1.80;1.80;;;;;;;9.03;100.00;101009.25;4988028;28;20488;-52
2021/11/15 07:07:55;;;;;;;0.30;0.20;;;;;;;9.06;100.00;101014.53;4987293;28;20454;-52
2021/11/15 07:10:22;;;;;;;0.30;0.30;;;;;;;8.82;100.00;101013.00;4987647;28;20457;-53
2021/11/15 07:12:50;;;;;;;0.30;0.20;;;;;;;8.89;100.00;101013.81;4985177;28;20599;-52
2021/11/15 07:15:18;;;;;;;0.30;0.20;;;;;;;9.00;100.00;101014.59;4987524;28;20450;-52
2021/11/15 07:17:46;;;;;;;0.30;0.20;;;;;;;9.16;100.00;101012.63;4982293;28;20547;-52
2021/11/15 07:20:13;;;;;;;0.30;0.20;;;;;;;8.98;100.00;101012.84;4981269;28;20478;-52
2021/11/15 07:22:39;;;;;;;0.30;0.20;;;;;;;8.84;100.00;101005.91;4985734;28;20458;-52
2021/11/15 07:25:06;;;;;;;0.30;0.20;;;;;;;9.03;100.00;101014.53;4987391;28;20538;-52
2021/11/15 07:27:33;;;;;;;0.30;0.20;;;;;;;8.88;100.00;101015.56;4982838;28;20819;-53
2021/11/15 07:30:00;;;;;;;0.30;0.20;;;;;;;8.82;100.00;101018.31;4980773;28;20478;-53
2021/11/15 07:32:26;;;;;;;0.30;0.20;;;;;;;8.93;100.00;101012.91;4993738;28;20528;-53
2021/11/15 07:34:57;;;;;;;0.30;0.20;;;;;;;9.02;100.00;101012.78;4980649;28;20447;-52
2021/11/15 07:37:23;;;;;;;0.30;0.20;;;;;;;8.96;100.00;101026.13;4983952;28;20454;-52
2021/11/15 07:39:50;;;;;;;1.70;1.43;;;;;;;8.97;100.00;101022.56;4987548;28;20458;-53
2021/11/15 07:42:19;;;;;;;0.30;0.20;;;;;;;8.99;100.00;101023.44;4983899;28;20556;-52
2021/11/15 07:44:46;;;;;;;0.30;0.20;;;;;;;9.14;100.00;101027.69;4980459;28;20481;-52
2021/11/15 07:47:15;;;;;;;0.30;0.20;;;;;;;9.13;100.00;101024.16;4983071;28;20525;-53
2021/11/15 07:49:43;;;;;;;0.87;0.87;;;;;;;9.09;100.00;101025.09;4987182;28;20450;-52
2021/11/15 07:52:11;;;;;;;0.30;0.20;;;;;;;9.08;100.00;101022.47;4984906;28;20473;-52
2021/11/15 07:54:39;;;;;;;0.30;0.20;;;;;;;9.09;100.00;101038.38;4980349;28;20508;-52
2021/11/15 07:57:08;;;;;;;0.50;0.50;;;;;;;9.13;100.00;101025.94;4982002;28;20944;-52
2021/11/15 07:59:36;;;;;;;0.30;0.20;;;;;;;9.16;100.00;101024.13;4986988;28;20502;-52
2021/11/15 08:02:03;;;;;;;0.30;0.20;;;;;;;9.13;100.00;101018.88;4957774;28;20470;-52
2021/11/15 08:04:30;;;;;;;0.30;0.20;;;;;;;9.06;100.00;101014.53;4992242;28;20942;-52
2021/11/15 08:06:57;;;;;;;0.30;0.20;;;;;;;9.25;100.00;101016.97;4981402;28;20455;-53
2021/11/15 08:09:25;;;;;;;2.00;1.90;;;;;;;9.20;100.00;101017.91;4986766;28;20524;-52
2021/11/15 08:11:55;;;;;;;1.33;0.80;;;;;;;9.20;100.00;101025.00;4985881;28;20485;-52
2021/11/15 08:14:22;;;;;;;0.30;0.20;;;;;;;9.02;100.00;101026.03;4980324;28;20453;-53
2021/11/15 08:16:50;;;;;;;0.30;0.20;;;;;;;9.11;100.00;101020.66;4980228;28;20454;-52
2021/11/15 08:19:17;;;;;;;0.40;0.40;;;;;;;9.10;100.00;101020.69;4985653;28;20496;-52
2021/11/15 08:21:44;;;;;;;0.70;0.70;;;;;;;9.19;100.00;101026.78;4986346;28;20994;-52
2021/11/15 08:24:16;;;;;;;0.30;0.20;;;;;;;9.08;100.00;101018.03;4981307;28;20512;-52
2021/11/15 08:26:51;;;;;;;3.27;2.83;;;;;;;9.16;100.00;101020.59;4979766;28;21023;-51
2021/11/15 08:29:19;;;;;;;0.30;0.20;;;;;;;9.12;100.00;101026.84;4983016;28;20450;-51
2021/11/15 08:31:47;;;;;;;0.30;0.20;;;;;;;8.96;100.00;101019.94;4990000;28;20444;-52
2021/11/15 08:34:14;;;;;;;0.30;0.20;;;;;;;8.92;100.00;101023.53;4982860;28;20534;-52
2021/11/15 08:36:42;;;;;;;0.30;0.20;;;;;;;9.07;100.00;101018.94;4986991;28;20454;-52
2021/11/15 08:39:16;;;;;;;0.30;0.20;;;;;;;9.09;100.00;101018.91;4984162;28;20496;-52
2021/11/15 08:41:47;;;;;;;0.30;0.20;;;;;;;8.93;100.00;101014.69;4980019;28;20466;-52
2021/11/15 08:44:17;;;;;;;0.40;0.40;;;;;;;8.91;100.00;101022.66;4980880;28;20442;-53
2021/11/15 08:46:47;;;;;;;0.30;0.20;;;;;;;9.00;100.00;101017.22;4986694;28;20521;-52
2021/11/15 08:49:17;;;;;;;0.30;0.20;;;;;;;9.11;100.00;101022.44;4969119;28;20446;-53
2021/11/15 08:51:45;;;;;;;3.20;0.77;;;;;;;9.12;100.00;101017.09;4980562;28;20527;-52
2021/11/15 08:54:15;;;;;;;0.40;0.30;;;;;;;9.18;100.00;101021.44;4958884;28;20453;-52
2021/11/15 08:56:44;;;;;;;0.30;0.20;;;;;;;9.22;100.00;101011.72;4981813;28;20449;-52
2021/11/15 08:59:31;;;;;;;0.30;0.20;;;;;;;9.16;100.00;101016.16;4979680;28;20576;-52
2021/11/15 09:01:59;;;;;;;0.30;0.20;;;;;;;9.11;100.00;101006.53;4992694;28;20528;-52
2021/11/15 09:04:28;;;;;;;2.87;1.13;;;;;;;8.96;100.00;101020.81;4959243;28;20542;-52
2021/11/15 09:06:54;;;;;;;0.30;0.20;;;;;;;9.11;100.00;101009.16;4985431;28;20454;-52
2021/11/15 09:09:29;;;;;;;0.30;0.20;;;;;;;9.16;100.00;101008.22;4979587;28;20454;-52
2021/11/15 09:12:02;;;;;;;0.30;0.20;;;;;;;9.03;100.00;100995.97;4971402;28;20575;-52
2021/11/15 09:14:31;;;;;;;0.30;0.20;;;;;;;9.00;100.00;101001.31;4981596;28;20457;-52
2021/11/15 09:17:09;;;;;;;0.30;0.20;;;;;;;9.01;100.00;100996.91;4962687;28;20437;-52
2021/11/15 09:19:38;;;;;;;0.30;0.20;;;;;;;9.12;100.00;100997.66;4965431;28;20934;-52
2021/11/15 09:22:11;;;;;;;0.30;0.20;;;;;;;8.94;100.00;101000.53;4969178;28;20478;-52
2021/11/15 09:24:45;;;;;;;0.30;0.20;;;;;;;9.11;100.00;101010.03;4986864;28;20460;-52
2021/11/15 09:27:14;;;;;;;2.73;2.67;;;;;;;9.07;100.00;101005.69;4983057;28;20495;-52
2021/11/15 09:29:47;;;;;;;0.30;0.20;;;;;;;9.09;100.00;101010.97;4982988;28;20456;-52
2021/11/15 09:32:23;;;;;;;0.30;0.20;;;;;;;8.99;100.00;101010.19;4990877;28;20464;-52
2021/11/15 09:35:03;;;;;;;0.30;0.20;;;;;;;8.94;100.00;101021.72;4967215;28;20469;-52
2021/11/15 09:37:36;;;;;;;0.30;0.20;;;;;;;9.13;100.00;101024.16;4985213;28;20458;-52
2021/11/15 09:40:14;;;;;;;0.30;0.20;;;;;;;9.17;100.00;101017.91;4989247;28;20536;-52
2021/11/15 09:42:44;;;;;;;0.30;0.20;;;;;;;8.96;100.00;101028.78;4988574;28;20937;-52
2021/11/15 09:45:11;;;;;;;0.30;0.20;;;;;;;9.17;100.00;101025.88;4983527;28;20432;-51
2021/11/15 09:47:40;;;;;;;0.30;0.20;;;;;;;9.11;100.00;101033.03;4982647;28;20454;-52
2021/11/15 09:50:15;;;;;;;0.30;0.20;;;;;;;9.25;100.00;101038.19;4971015;28;20545;-51
2021/11/15 09:52:42;;;;;;;0.30;0.20;;;;;;;9.14;100.00;101035.66;4989400;28;20445;-51
2021/11/15 09:55:09;;;;;;;0.53;0.53;;;;;;;9.10;100.00;101037.47;4985589;28;20453;-51
2021/11/15 09:57:40;;;;;;;0.93;0.93;;;;;;;9.11;100.00;101036.56;4982369;28;20458;-52
2021/11/15 10:00:11;;;;;;;0.30;0.20;;;;;;;9.11;100.00;101036.56;4985725;28;20518;-51
2021/11/15 10:02:39;;;;;;;0.30;0.20;;;;;;;9.04;100.00;101024.25;4980600;28;20488;-51
2021/11/15 10:05:08;;;;;;;0.30;0.20;;;;;;;8.99;100.00;101030.50;4995617;28;20453;-51
2021/11/15 10:07:50;;;;;;;0.60;0.60;;;;;;;9.17;100.00;101039.13;4991352;28;20454;-50
2021/11/15 10:10:39;;;;;;;0.30;0.20;;;;;;;9.11;100.00;101035.69;4988802;28;20457;-51
2021/11/15 10:13:10;;;;;;;0.30;0.20;;;;;;;9.19;100.00;101037.38;5004877;23;20496;-53
2021/11/15 10:16:10;;;;;;;0.30;0.20;;;;;;;9.12;100.00;101037.44;5014740;28;20479;-52
2021/11/15 10:18:59;;;;;;;0.43;0.43;;;;;;;9.19;100.00;101034.72;5014599;28;20499;-52
2021/11/15 10:21:26;;;;;;;0.30;0.20;;;;;;;9.24;100.00;101037.31;5014771;28;20472;-53
2021/11/15 10:24:14;;;;;;;0.40;0.30;;;;;;;9.31;100.00;101036.34;5014667;28;20519;-53
2021/11/15 10:26:56;;;;;;;0.33;0.33;;;;;;;9.20;100.00;101033.84;5014653;28;20467;-53
2021/11/15 10:29:33;;;;;;;0.30;0.30;;;;;;;9.26;100.00;101030.22;5014592;28;20527;-52
2021/11/15 10:32:06;;;;;;;0.30;0.20;;;;;;;9.00;100.00;101026.97;5009857;28;20520;-53
2021/11/15 10:34:53;;;;;;;0.30;0.20;;;;;;;8.85;100.00;101028.88;5007248;28;20449;-53
2021/11/15 10:37:29;;;;;;;0.30;0.20;;;;;;;8.88;100.00;101026.19;5013935;28;20886;-51
2021/11/15 10:40:07;;;;;;;0.30;0.20;;;;;;;8.94;100.00;101019.09;5014451;28;20522;-52
2021/11/15 10:42:39;;;;;;;0.30;0.20;;;;;;;8.93;100.00;101018.22;5014286;28;20469;-50
2021/11/15 10:45:11;;;;;;;0.30;0.20;;;;;;;8.97;100.00;101014.63;5014334;28;20472;-51
2021/11/15 10:47:42;;;;;;;0.30;0.20;;;;;;;8.84;100.00;101005.03;5014253;28;20827;-51
2021/11/15 10:50:44;;;;;;;0.30;0.20;;;;;;;8.87;100.00;101003.22;5014570;28;20921;-51
2021/11/15 10:53:24;;;;;;;0.30;0.20;;;;;;;8.99;100.00;101004.00;5014049;28;20476;-51
2021/11/15 10:56:26;;;;;;;0.40;0.33;;;;;;;9.07;100.00;101005.69;5014176;28;20449;-51
2021/11/15 10:58:54;;;;;;;0.30;0.20;;;;;;;9.11;100.00;101006.53;5013959;28;20519;-50
2021/11/15 11:01:29;;;;;;;0.30;0.20;;;;;;;9.04;100.00;101002.16;5008143;28;20469;-51
2021/11/15 11:04:10;;;;;;;0.30;0.20;;;;;;;8.75;100.00;100994.50;5007810;28;20471;-50
2021/11/15 11:07:06;;;;;;;0.30;0.20;;;;;;;8.98;100.00;100996.94;5013698;28;21004;-50
2021/11/15 11:09:38;;;;;;;0.30;0.20;;;;;;;9.00;100.00;100989.84;5013797;28;20461;-50
2021/11/15 11:12:14;;;;;;;0.30;0.20;;;;;;;8.96;100.00;100991.66;4994473;28;20546;-51
2021/11/15 11:14:43;;;;;;;0.30;0.20;;;;;;;9.06;100.00;100989.78;5003464;28;20456;-51
2021/11/15 11:17:10;;;;;;;0.47;0.47;;;;;;;9.02;100.00;100991.56;5013491;28;21021;-51
2021/11/15 11:20:19;;;;;;;3.80;1.80;;;;;;;8.96;100.00;100982.81;5013697;28;20488;-50
2021/11/15 11:23:28;;;;;;;0.30;0.20;;;;;;;9.02;100.00;100988.91;4993972;28;20473;-51
2021/11/15 11:25:55;;;;;;;0.30;0.20;;;;;;;9.01;100.00;100992.47;4993811;28;20445;-50
2021/11/15 11:28:36;;;;;;;0.53;0.53;;;;;;;8.92;100.00;100995.25;5008896;28;20449;-50
2021/11/15 11:31:06;;;;;;;0.30;0.20;;;;;;;8.89;100.00;100988.16;5013371;28;20449;-51
2021/11/15 11:33:33;;;;;;;0.30;0.20;;;;;;;8.93;100.00;100991.69;5000014;28;20540;-50
2021/11/15 11:36:02;;;;;;;0.43;0.43;;;;;;;8.85;100.00;100988.22;5013048;28;20453;-51